createdAt,value
2022-11-17T00:00:49.426Z,67.69
2022-11-17T00:03:17.942Z,67.88
2022-11-17T00:05:46.192Z,68.22
2022-11-17T00:08:14.469Z,67.79
2022-11-17T00:10:43.972Z,68.99
2022-11-17T00:13:30.005Z,67.97
2022-11-17T00:15:58.659Z,66.58
2022-11-17T00:18:44.544Z,68.11
2022-11-17T00:21:24.005Z,67.68
2022-11-17T00:23:52.245Z,67.08
2022-11-17T00:26:24.217Z,67.35
2022-11-17T00:28:54.671Z,67.50
2022-11-17T00:31:41.237Z,67.85
2022-11-17T00:34:13.926Z,66.67
2022-11-17T00:36:43.662Z,66.62
2022-11-17T00:39:13.278Z,67.60
2022-11-17T00:41:43.320Z,68.45
2022-11-17T00:44:12.123Z,66.72
2022-11-17T00:46:40.840Z,67.51
2022-11-17T00:49:12.790Z,67.37
2022-11-17T00:51:41.266Z,68.88
2022-11-17T00:54:13.246Z,68.15
2022-11-17T00:56:42.792Z,67.81
2022-11-17T00:59:11.494Z,69.52
2022-11-17T01:01:40.171Z,69.37
2022-11-17T01:04:08.594Z,69.32
2022-11-17T01:06:39.209Z,69.07
2022-11-17T01:09:09.614Z,69.13
2022-11-17T01:11:38.248Z,69.54
2022-11-17T01:14:08.035Z,69.41
2022-11-17T01:16:36.125Z,68.39
2022-11-17T01:19:05.309Z,68.43
2022-11-17T01:21:33.844Z,68.48
2022-11-17T01:24:03.003Z,67.96
2022-11-17T01:26:34.322Z,67.61
2022-11-17T01:29:03.628Z,66.54
2022-11-17T01:31:34.936Z,65.98
2022-11-17T01:34:03.180Z,67.57
2022-11-17T01:36:56.261Z,67.54
2022-11-17T01:39:24.995Z,67.46
2022-11-17T01:41:53.879Z,68.28
2022-11-17T01:44:59.171Z,68.28
2022-11-17T01:47:34.044Z,67.79
2022-11-17T01:50:07.369Z,67.36
2022-11-17T01:52:37.343Z,67.33
2022-11-17T01:55:07.843Z,67.85
2022-11-17T01:57:40.333Z,66.97
2022-11-17T02:00:11.433Z,66.45
2022-11-17T02:02:42.436Z,66.44
2022-11-17T02:05:23.688Z,67.25
2022-11-17T02:07:54.764Z,67.88
2022-11-17T02:10:23.101Z,67.25
2022-11-17T02:12:53.316Z,67.13
2022-11-17T02:15:22.296Z,67.53
2022-11-17T02:17:52.972Z,68.11
2022-11-17T02:20:31.803Z,67.74
2022-11-17T02:23:27.272Z,66.54
2022-11-17T02:26:21.275Z,67.17
2022-11-17T02:28:58.643Z,66.38
2022-11-17T02:31:35.079Z,66.85
2022-11-17T02:34:08.945Z,66.06
2022-11-17T02:36:44.341Z,65.13
2022-11-17T02:39:19.314Z,65.41
2022-11-17T02:41:53.755Z,66.75
2022-11-17T02:44:30.860Z,67.28
2022-11-17T02:47:04.007Z,67.51
2022-11-17T02:49:36.969Z,67.28
2022-11-17T02:52:07.484Z,67.21
2022-11-17T02:54:35.878Z,67.15
2022-11-17T02:57:04.201Z,66.37
2022-11-17T02:59:36.361Z,66.27
2022-11-17T03:02:20.904Z,66.55
2022-11-17T03:05:05.592Z,66.59
2022-11-17T03:07:48.075Z,67.08
2022-11-17T03:10:21.131Z,67.41
2022-11-17T03:12:56.412Z,66.61
2022-11-17T03:15:34.103Z,66.39
2022-11-17T03:18:09.026Z,65.58
2022-11-17T03:20:48.232Z,65.42
2022-11-17T03:23:20.889Z,65.04
2022-11-17T03:25:54.749Z,65.21
2022-11-17T03:28:28.088Z,65.45
2022-11-17T03:30:59.424Z,65.28
2022-11-17T03:33:28.928Z,65.23
2022-11-17T03:36:02.696Z,64.55
2022-11-17T03:38:43.835Z,65.74
2022-11-17T03:41:15.458Z,66.33
2022-11-17T03:43:45.507Z,66.03
2022-11-17T03:46:18.234Z,66.02
2022-11-17T03:48:52.721Z,65.35
2022-11-17T03:51:24.453Z,66.22
2022-11-17T03:53:54.699Z,66.34
2022-11-17T03:56:38.571Z,65.48
2022-11-17T03:59:14.196Z,65.82
2022-11-17T04:01:43.919Z,66.04
2022-11-17T04:04:17.475Z,66.45
2022-11-17T04:06:45.641Z,67.05
2022-11-17T04:09:13.798Z,66.98
2022-11-17T04:11:59.621Z,68.10
2022-11-17T04:14:50.645Z,67.51
2022-11-17T04:17:20.409Z,66.51
2022-11-17T04:19:48.759Z,66.89
2022-11-17T04:22:16.815Z,65.84
2022-11-17T04:24:44.859Z,66.17
2022-11-17T04:27:30.608Z,65.17
2022-11-17T04:29:58.789Z,65.29
2022-11-17T04:32:28.130Z,65.46
2022-11-17T04:34:56.239Z,65.08
2022-11-17T04:37:24.260Z,67.01
2022-11-17T04:39:52.320Z,66.39
2022-11-17T04:42:19.769Z,65.55
2022-11-17T04:44:47.748Z,64.94
2022-11-17T04:47:15.921Z,64.73
2022-11-17T04:49:45.283Z,64.37
2022-11-17T04:52:13.231Z,64.09
2022-11-17T04:54:41.371Z,64.48
2022-11-17T04:57:09.353Z,64.97
2022-11-17T04:59:37.826Z,65.25
2022-11-17T05:02:06.438Z,65.24
2022-11-17T05:04:52.413Z,65.53
2022-11-17T05:07:21.945Z,65.72
2022-11-17T05:09:49.986Z,65.95
2022-11-17T05:12:35.316Z,66.29
2022-11-17T05:15:03.618Z,64.96
2022-11-17T05:17:30.865Z,65.25
2022-11-17T05:19:58.926Z,64.55
2022-11-17T05:22:45.584Z,65.49
2022-11-17T05:25:13.614Z,65.14
2022-11-17T05:27:41.805Z,65.18
2022-11-17T05:30:11.891Z,65.22
2022-11-17T05:32:39.831Z,64.94
2022-11-17T05:35:08.776Z,65.19
2022-11-17T05:37:38.087Z,66.25
2022-11-17T05:40:07.600Z,66.32
2022-11-17T05:42:36.203Z,66.16
2022-11-17T05:45:04.222Z,65.73
2022-11-17T05:47:32.352Z,64.99
2022-11-17T05:50:00.395Z,64.90
2022-11-17T05:52:28.531Z,64.77
2022-11-17T05:54:58.010Z,64.87
2022-11-17T05:57:32.563Z,64.41
2022-11-17T06:00:04.620Z,66.02
2022-11-17T06:02:46.159Z,66.03
2022-11-17T06:05:19.773Z,65.98
2022-11-17T06:07:48.790Z,66.25
2022-11-17T06:10:18.666Z,67.61
2022-11-17T06:12:46.997Z,67.37
2022-11-17T06:15:15.128Z,65.45
2022-11-17T06:17:48.776Z,64.82
2022-11-17T06:20:20.620Z,64.77
2022-11-17T06:22:50.794Z,64.91
2022-11-17T06:25:21.888Z,65.10
2022-11-17T06:27:51.945Z,65.20
2022-11-17T06:30:20.431Z,68.01
2022-11-17T06:32:50.016Z,67.52
2022-11-17T06:35:18.784Z,68.44
2022-11-17T06:37:46.890Z,67.80
2022-11-17T06:40:15.071Z,66.70
2022-11-17T06:43:02.163Z,66.77
2022-11-17T06:45:33.639Z,66.08
2022-11-17T06:48:02.254Z,67.22
2022-11-17T06:50:30.533Z,66.02
2022-11-17T06:52:59.384Z,66.73
2022-11-17T06:55:28.018Z,65.92
2022-11-17T06:58:02.939Z,65.84
2022-11-17T07:00:31.828Z,66.37
2022-11-17T07:03:01.897Z,65.83
2022-11-17T07:05:31.335Z,65.54
2022-11-17T07:08:00.089Z,65.24
2022-11-17T07:10:29.569Z,66.62
2022-11-17T07:12:58.112Z,66.33
2022-11-17T07:15:28.388Z,65.89
2022-11-17T07:17:56.545Z,64.07
2022-11-17T07:20:24.823Z,67.98
2022-11-17T07:22:53.441Z,70.91
2022-11-17T07:25:22.678Z,68.24
2022-11-17T07:27:59.038Z,67.95
2022-11-17T07:30:29.040Z,68.00
2022-11-17T07:32:59.687Z,67.18
2022-11-17T07:35:28.179Z,69.30
2022-11-17T07:37:59.435Z,69.36
2022-11-17T07:40:27.570Z,66.94
2022-11-17T07:42:55.994Z,66.78
2022-11-17T07:45:30.430Z,69.01
2022-11-17T07:48:03.242Z,69.11
2022-11-17T07:50:31.973Z,68.44
2022-11-17T07:53:00.416Z,68.64
2022-11-17T07:55:29.109Z,68.19
2022-11-17T07:57:58.376Z,67.06
2022-11-17T08:00:28.439Z,68.39
2022-11-17T08:02:56.775Z,68.88
2022-11-17T08:05:30.524Z,66.86
2022-11-17T08:08:00.552Z,65.56
2022-11-17T08:10:31.350Z,64.86
2022-11-17T08:13:00.894Z,66.66
2022-11-17T08:15:29.613Z,67.33
2022-11-17T08:17:59.333Z,66.20
2022-11-17T08:20:30.318Z,66.33
2022-11-17T08:22:58.653Z,66.69
2022-11-17T08:25:28.225Z,65.75
2022-11-17T08:27:57.736Z,64.73
2022-11-17T08:30:27.077Z,64.62
2022-11-17T08:32:56.102Z,64.25
2022-11-17T08:35:26.615Z,63.52
2022-11-17T08:37:56.333Z,65.94
2022-11-17T08:40:24.767Z,63.55
2022-11-17T08:43:00.606Z,62.03
2022-11-17T08:45:29.978Z,61.88
2022-11-17T08:47:58.083Z,62.89
2022-11-17T08:50:26.550Z,65.19
2022-11-17T08:52:56.016Z,63.28
2022-11-17T08:55:26.302Z,63.47
2022-11-17T08:57:54.794Z,62.96
2022-11-17T09:00:23.305Z,62.29
2022-11-17T09:02:51.865Z,62.30
2022-11-17T09:05:21.047Z,61.94
2022-11-17T09:07:49.160Z,62.55
2022-11-17T09:10:19.539Z,62.67
2022-11-17T09:12:48.082Z,63.06
2022-11-17T09:15:16.575Z,62.45
2022-11-17T09:17:48.107Z,61.78
2022-11-17T09:20:17.303Z,60.92
2022-11-17T09:22:46.024Z,62.47
2022-11-17T09:25:14.965Z,61.58
2022-11-17T09:27:44.651Z,62.16
2022-11-17T09:30:13.171Z,62.36
2022-11-17T09:32:41.237Z,63.45
2022-11-17T09:35:10.994Z,61.38
2022-11-17T09:37:39.424Z,60.43
2022-11-17T09:40:11.127Z,61.10
2022-11-17T09:42:41.019Z,61.33
2022-11-17T09:45:19.009Z,61.20
2022-11-17T09:48:02.550Z,62.33
2022-11-17T09:50:42.012Z,60.16
2022-11-17T09:53:16.154Z,61.56
2022-11-17T09:55:47.503Z,61.73
2022-11-17T09:58:20.502Z,61.00
2022-11-17T10:00:52.791Z,60.91
2022-11-17T10:03:23.247Z,60.53
2022-11-17T10:05:53.326Z,59.89
2022-11-17T10:08:29.374Z,59.71
2022-11-17T10:10:57.765Z,59.46
2022-11-17T10:13:29.073Z,63.48
2022-11-17T10:16:02.238Z,63.20
2022-11-17T10:18:37.750Z,63.39
2022-11-17T10:21:08.383Z,62.61
2022-11-17T10:23:44.572Z,64.75
2022-11-17T10:26:16.916Z,64.96
2022-11-17T10:28:46.027Z,63.11
2022-11-17T10:31:17.886Z,63.38
2022-11-17T10:33:47.946Z,64.08
2022-11-17T10:36:20.556Z,62.64
2022-11-17T10:38:50.860Z,63.49
2022-11-17T10:41:21.589Z,63.07
2022-11-17T10:43:59.841Z,62.83
2022-11-17T10:46:35.784Z,62.72
2022-11-17T10:49:26.122Z,63.84
2022-11-17T10:52:06.182Z,63.88
2022-11-17T10:54:34.586Z,64.45
2022-11-17T10:57:06.648Z,62.85
2022-11-17T10:59:43.408Z,62.58
2022-11-17T11:02:29.865Z,66.64
2022-11-17T11:05:17.286Z,66.06
2022-11-17T11:07:45.944Z,66.27
2022-11-17T11:10:18.008Z,65.09
2022-11-17T11:12:51.141Z,66.53
2022-11-17T11:15:22.342Z,67.42
2022-11-17T11:17:52.652Z,66.50
2022-11-17T11:20:25.447Z,68.45
2022-11-17T11:23:00.801Z,68.73
2022-11-17T11:25:37.230Z,67.17
2022-11-17T11:28:16.443Z,68.59
2022-11-17T11:30:55.908Z,66.90
2022-11-17T11:33:35.214Z,65.84
2022-11-17T11:36:20.207Z,68.05
2022-11-17T11:38:56.638Z,65.55
2022-11-17T11:41:48.921Z,64.99
2022-11-17T11:44:30.469Z,66.41
2022-11-17T11:47:05.776Z,67.32
2022-11-17T11:49:43.567Z,66.11
2022-11-17T11:52:15.867Z,65.66
2022-11-17T11:54:51.210Z,66.09
2022-11-17T11:57:25.057Z,65.27
2022-11-17T12:00:02.431Z,64.80
2022-11-17T12:02:42.130Z,62.99
2022-11-17T12:05:20.679Z,65.16
2022-11-17T12:07:54.496Z,65.32
2022-11-17T12:10:31.489Z,64.98
2022-11-17T12:13:01.266Z,65.52
2022-11-17T12:15:39.486Z,65.33
2022-11-17T12:18:14.334Z,66.67
2022-11-17T12:20:58.894Z,66.45
2022-11-17T12:23:46.389Z,67.21
2022-11-17T12:26:23.642Z,67.50
2022-11-17T12:29:25.689Z,65.34
2022-11-17T12:31:55.305Z,68.10
2022-11-17T12:34:30.661Z,68.01
2022-11-17T12:37:27.507Z,66.47
2022-11-17T12:40:08.131Z,68.36
2022-11-17T12:42:37.866Z,67.30
2022-11-17T12:45:09.148Z,69.03
2022-11-17T12:47:39.594Z,68.09
2022-11-17T12:50:44.189Z,66.50
2022-11-17T12:53:39.667Z,66.81
2022-11-17T12:56:34.754Z,66.39
2022-11-17T12:59:26.887Z,66.72
2022-11-17T13:02:05.923Z,66.18
2022-11-17T13:04:49.116Z,66.92
2022-11-17T13:07:21.534Z,67.89
2022-11-17T13:10:02.767Z,66.14
2022-11-17T13:12:32.589Z,67.50
2022-11-17T13:15:03.194Z,67.80
2022-11-17T13:17:34.579Z,67.53
2022-11-17T13:20:05.142Z,66.03
2022-11-17T13:22:37.647Z,67.69
2022-11-17T13:25:23.352Z,66.64
2022-11-17T13:27:57.151Z,65.70
2022-11-17T13:30:28.931Z,65.94
2022-11-17T13:32:59.325Z,66.18
2022-11-17T13:35:30.197Z,68.13
2022-11-17T13:38:07.259Z,67.16
2022-11-17T13:40:38.089Z,65.14
2022-11-17T13:43:08.532Z,64.89
2022-11-17T13:45:36.897Z,67.12
2022-11-17T13:48:05.720Z,66.78
2022-11-17T13:50:38.392Z,66.48
2022-11-17T13:53:21.212Z,68.79
2022-11-17T13:55:51.653Z,68.47
2022-11-17T13:58:31.701Z,68.03
2022-11-17T14:01:00.673Z,69.36
2022-11-17T14:03:37.253Z,68.38
2022-11-17T14:06:07.666Z,70.24
2022-11-17T14:08:37.322Z,70.50
2022-11-17T14:11:13.808Z,70.38
2022-11-17T14:13:44.693Z,70.16
2022-11-17T14:16:22.795Z,68.78
2022-11-17T14:19:01.045Z,69.22
2022-11-17T14:21:31.502Z,69.88
2022-11-17T14:24:11.480Z,67.98
2022-11-17T14:26:45.033Z,68.82
2022-11-17T14:29:14.750Z,67.45
2022-11-17T14:31:43.182Z,67.85
2022-11-17T14:34:11.715Z,68.89
2022-11-17T14:36:40.743Z,69.19
2022-11-17T14:39:16.071Z,69.51
2022-11-17T14:41:47.035Z,71.25
2022-11-17T14:44:15.311Z,71.20
2022-11-17T14:46:43.814Z,70.77
2022-11-17T14:49:12.251Z,68.64
2022-11-17T14:51:40.796Z,70.85
2022-11-17T14:54:09.232Z,71.52
2022-11-17T14:56:37.410Z,70.35
2022-11-17T14:59:07.004Z,68.94
2022-11-17T15:01:38.577Z,69.77
2022-11-17T15:04:34.536Z,68.57
2022-11-17T15:06:57.293Z,69.75
2022-11-17T15:09:25.399Z,70.39
2022-11-17T15:11:53.472Z,70.81
2022-11-17T15:14:23.044Z,69.53
2022-11-17T15:16:51.162Z,67.92
2022-11-17T15:19:19.343Z,68.89
2022-11-17T15:21:47.323Z,69.42
2022-11-17T15:24:15.843Z,71.18
2022-11-17T15:26:44.461Z,69.65
2022-11-17T15:29:15.272Z,69.00
2022-11-17T15:31:45.088Z,68.21
2022-11-17T15:34:17.158Z,68.31
2022-11-17T15:36:48.166Z,69.11
2022-11-17T15:39:16.989Z,71.72
2022-11-17T15:41:48.914Z,71.61
2022-11-17T15:44:18.809Z,72.11
2022-11-17T15:46:48.571Z,72.56
2022-11-17T15:49:16.999Z,70.93
2022-11-17T15:51:45.306Z,70.35
2022-11-17T15:54:19.624Z,69.95
2022-11-17T15:56:49.456Z,70.27
2022-11-17T15:59:17.678Z,70.98
2022-11-17T16:01:45.945Z,70.18
2022-11-17T16:04:16.413Z,71.89
2022-11-17T16:06:46.436Z,71.42
2022-11-17T16:09:15.980Z,71.06
2022-11-17T16:11:45.545Z,71.37
2022-11-17T16:14:14.897Z,71.43
2022-11-17T16:16:43.701Z,71.80
2022-11-17T16:19:11.822Z,73.45
2022-11-17T16:21:41.256Z,72.87
2022-11-17T16:24:12.084Z,71.30
2022-11-17T16:26:40.274Z,71.30
2022-11-17T16:29:08.950Z,70.19
2022-11-17T16:31:37.839Z,69.90
2022-11-17T16:34:07.303Z,69.30
2022-11-17T16:36:38.336Z,69.24
2022-11-17T16:39:09.568Z,70.34
2022-11-17T16:41:39.409Z,71.08
2022-11-17T16:44:09.643Z,70.39
2022-11-17T16:46:37.745Z,71.13
2022-11-17T16:49:08.403Z,71.25
2022-11-17T16:51:36.696Z,70.74
2022-11-17T16:54:08.455Z,70.65
2022-11-17T16:56:36.517Z,72.00
2022-11-17T16:59:04.826Z,70.63
2022-11-17T17:01:34.777Z,70.45
2022-11-17T17:04:04.909Z,70.22
2022-11-17T17:06:33.744Z,69.06
2022-11-17T17:09:04.472Z,70.86
2022-11-17T17:11:35.692Z,72.06
2022-11-17T17:14:05.400Z,70.19
2022-11-17T17:16:35.676Z,71.02
2022-11-17T17:19:05.917Z,71.13
2022-11-17T17:21:34.750Z,71.83
2022-11-17T17:24:03.255Z,71.48
2022-11-17T17:26:34.397Z,71.92
2022-11-17T17:29:04.469Z,71.11
2022-11-17T17:31:35.598Z,69.44
2022-11-17T17:34:04.262Z,68.07
2022-11-17T17:36:32.371Z,68.46
2022-11-17T17:39:02.715Z,71.40
2022-11-17T17:41:32.937Z,70.11
2022-11-17T17:44:04.497Z,69.45
2022-11-17T17:46:35.997Z,69.73
2022-11-17T17:49:04.455Z,69.76
2022-11-17T17:51:32.549Z,70.63
2022-11-17T17:54:02.105Z,73.06
2022-11-17T17:56:31.553Z,72.15
2022-11-17T17:59:00.547Z,71.15
2022-11-17T18:01:33.118Z,70.02
2022-11-17T18:04:05.058Z,72.38
2022-11-17T18:06:37.262Z,72.63
2022-11-17T18:09:05.629Z,72.55
2022-11-17T18:11:34.139Z,74.24
2022-11-17T18:14:02.576Z,72.82
2022-11-17T18:16:33.708Z,70.91
2022-11-17T18:19:04.219Z,71.19
2022-11-17T18:21:33.415Z,70.61
2022-11-17T18:24:03.119Z,70.43
2022-11-17T18:26:32.820Z,70.30
2022-11-17T18:29:02.510Z,71.07
2022-11-17T18:31:34.181Z,69.59
2022-11-17T18:34:04.303Z,68.53
2022-11-17T18:36:32.510Z,69.94
2022-11-17T18:39:00.641Z,70.58
2022-11-17T18:41:30.923Z,70.25
2022-11-17T18:43:59.505Z,69.31
2022-11-17T18:46:29.701Z,69.17
2022-11-17T18:48:59.708Z,69.83
2022-11-17T18:51:29.810Z,70.45
2022-11-17T18:53:59.546Z,70.80
2022-11-17T18:56:29.780Z,72.31
2022-11-17T18:58:58.156Z,71.34
2022-11-17T19:01:28.862Z,70.62
2022-11-17T19:04:01.181Z,70.21
2022-11-17T19:06:29.681Z,70.94
2022-11-17T19:08:59.772Z,71.51
2022-11-17T19:11:30.764Z,71.33
2022-11-17T19:14:02.213Z,71.28
2022-11-17T19:16:31.849Z,72.24
2022-11-17T19:19:01.435Z,69.82
2022-11-17T19:21:30.597Z,71.05
2022-11-17T19:24:00.417Z,71.74
2022-11-17T19:26:32.194Z,72.75
2022-11-17T19:29:02.328Z,73.16
2022-11-17T19:31:30.521Z,72.83
2022-11-17T19:33:59.709Z,73.27
2022-11-17T19:36:30.578Z,72.63
2022-11-17T19:39:00.681Z,73.36
2022-11-17T19:41:30.882Z,72.45
2022-11-17T19:44:00.873Z,72.18
2022-11-17T19:46:30.051Z,69.83
2022-11-17T19:48:58.684Z,69.73
2022-11-17T19:51:30.211Z,68.95
2022-11-17T19:54:01.235Z,68.94
2022-11-17T19:56:29.495Z,69.43
2022-11-17T19:58:57.580Z,71.04
2022-11-17T20:01:27.572Z,71.77
2022-11-17T20:03:57.439Z,70.85
2022-11-17T20:06:27.807Z,70.93
2022-11-17T20:08:57.906Z,72.35
2022-11-17T20:11:27.927Z,71.94
2022-11-17T20:13:56.750Z,73.24
2022-11-17T20:16:26.894Z,71.23
2022-11-17T20:18:56.329Z,71.76
2022-11-17T20:21:24.610Z,70.95
2022-11-17T20:23:53.009Z,71.34
2022-11-17T20:26:24.968Z,70.41
2022-11-17T20:28:53.675Z,69.13
2022-11-17T20:31:24.309Z,70.58
2022-11-17T20:33:56.359Z,69.52
2022-11-17T20:36:25.726Z,71.85
2022-11-17T20:38:55.865Z,69.13
2022-11-17T20:41:25.859Z,71.55
2022-11-17T20:43:56.228Z,71.68
2022-11-17T20:46:25.235Z,71.29
2022-11-17T20:48:53.353Z,70.70
2022-11-17T20:51:23.324Z,71.44
2022-11-17T20:53:51.596Z,71.29
2022-11-17T20:56:20.355Z,72.11
2022-11-17T20:58:49.880Z,69.05
2022-11-17T21:01:20.520Z,70.06
2022-11-17T21:03:49.293Z,69.33
2022-11-17T21:06:18.423Z,70.03
2022-11-17T21:08:47.461Z,71.48
2022-11-17T21:11:37.767Z,69.54
2022-11-17T21:14:09.585Z,70.14
2022-11-17T21:16:39.526Z,71.09
2022-11-17T21:19:08.279Z,71.93
2022-11-17T21:21:36.394Z,70.46
2022-11-17T21:24:04.880Z,69.19
2022-11-17T21:26:33.613Z,69.29
2022-11-17T21:29:16.829Z,69.41
2022-11-17T21:31:46.509Z,69.20
2022-11-17T21:34:17.166Z,70.86
2022-11-17T21:36:45.335Z,70.32
2022-11-17T21:39:18.630Z,70.44
2022-11-17T21:41:46.989Z,69.94
2022-11-17T21:44:15.312Z,70.30
2022-11-17T21:46:43.539Z,71.65
2022-11-17T21:49:14.420Z,69.39
2022-11-17T21:51:42.679Z,69.73
2022-11-17T21:54:11.145Z,70.66
2022-11-17T21:56:40.251Z,70.33
2022-11-17T21:59:12.106Z,70.35
2022-11-17T22:01:41.023Z,70.16
2022-11-17T22:04:09.050Z,70.70
2022-11-17T22:06:39.737Z,70.23
2022-11-17T22:09:08.147Z,71.21
2022-11-17T22:11:36.890Z,70.09
2022-11-17T22:14:08.121Z,70.44
2022-11-17T22:16:36.873Z,69.86
2022-11-17T22:19:05.795Z,70.13
2022-11-17T22:21:34.045Z,69.68
2022-11-17T22:24:03.832Z,71.06
2022-11-17T22:26:32.754Z,69.70
2022-11-17T22:29:00.718Z,70.15
2022-11-17T22:31:28.838Z,68.68
2022-11-17T22:33:56.921Z,70.27
2022-11-17T22:36:25.064Z,70.45
2022-11-17T22:38:53.832Z,68.92
2022-11-17T22:41:24.198Z,68.62
2022-11-17T22:43:53.247Z,69.00
2022-11-17T22:46:22.586Z,69.34
2022-11-17T22:48:50.753Z,68.56
2022-11-17T22:51:39.656Z,69.33
2022-11-17T22:54:08.864Z,70.00
2022-11-17T22:56:38.484Z,70.83
2022-11-17T22:59:06.557Z,71.84
2022-11-17T23:01:35.501Z,70.61
2022-11-17T23:04:03.778Z,69.70
2022-11-17T23:06:31.773Z,69.43
2022-11-17T23:08:59.919Z,69.48
2022-11-17T23:11:37.446Z,69.34
2022-11-17T23:14:11.341Z,70.88
2022-11-17T23:16:40.374Z,72.07
2022-11-17T23:19:09.571Z,72.02
2022-11-17T23:21:37.752Z,73.43
2022-11-17T23:24:06.264Z,72.38
2022-11-17T23:26:34.348Z,72.84
2022-11-17T23:29:02.389Z,71.62
2022-11-17T23:31:31.983Z,70.67
2022-11-17T23:34:00.090Z,69.89
2022-11-17T23:36:28.395Z,68.99
2022-11-17T23:38:57.562Z,70.12
2022-11-17T23:41:25.681Z,70.28
2022-11-17T23:43:55.108Z,70.99
2022-11-17T23:46:24.778Z,70.02
2022-11-17T23:48:57.091Z,70.32
2022-11-17T23:51:28.764Z,68.29
2022-11-17T23:53:58.995Z,68.09
2022-11-17T23:56:27.418Z,68.68
2022-11-17T23:58:55.402Z,66.96
